Time;durP1;ratioP1;P1;durP2;ratioP2;P2;SDS_P1;SDS_P2;PMS_P1;PMS_P2;Temp;Humidity;BMP_temperature;BMP_pressure;BME280_temperature;BME280_humidity;BME280_pressure;Samples;Min_cycle;Max_cycle;Signal;HPM_P1;HPM_P2
2023/03/30 00:01:10;;;;;;;34.30;30.30;;;;;;;2.26;65.89;97949.44;109527;1291;22124;-85
2023/03/30 00:03:41;;;;;;;36.10;32.40;;;;;;;2.31;65.97;97945.73;109542;1291;22167;-85
2023/03/30 00:06:11;;;;;;;33.20;29.70;;;;;;;2.35;65.66;97947.69;109531;1291;22275;-85
2023/03/30 00:08:39;;;;;;;31.50;27.00;;;;;;;2.40;65.65;97944.94;109552;1291;22298;-85
2023/03/30 00:11:14;;;;;;;29.60;26.50;;;;;;;2.47;65.67;97944.41;109534;1291;22119;-85
2023/03/30 00:13:43;;;;;;;28.40;24.30;;;;;;;2.52;65.50;97939.63;109690;1291;22267;-85
2023/03/30 00:16:13;;;;;;;25.80;23.10;;;;;;;2.54;65.50;97934.71;109692;1291;22179;-83
2023/03/30 00:18:41;;;;;;;26.00;23.30;;;;;;;2.63;65.50;97942.28;109099;1291;653070;-85
2023/03/30 00:21:09;;;;;;;27.60;24.80;;;;;;;2.69;65.65;97941.60;109563;1291;22295;-84
2023/03/30 00:23:38;;;;;;;25.90;22.80;;;;;;;2.73;65.38;97940.34;109566;1291;22283;-82
2023/03/30 00:26:06;;;;;;;28.90;24.80;;;;;;;2.77;65.45;97940.27;109546;1288;22209;-84
2023/03/30 00:28:35;;;;;;;28.90;25.70;;;;;;;2.81;65.29;97941.70;109545;1291;22778;-84
2023/03/30 00:31:03;;;;;;;26.80;23.90;;;;;;;2.80;65.19;97941.58;109567;1291;22401;-85
2023/03/30 00:33:31;;;;;;;28.00;23.90;;;;;;;2.85;65.45;97939.05;109543;1291;22159;-84
2023/03/30 00:36:13;;;;;;;26.50;23.40;;;;;;;2.95;65.32;97933.95;109541;1276;22269;-85
2023/03/30 00:38:41;;;;;;;28.50;25.40;;;;;;;3.04;65.66;97928.56;109569;1291;22297;-84
2023/03/30 00:41:09;;;;;;;26.90;23.90;;;;;;;3.11;65.53;97927.42;109563;1291;22202;-84
2023/03/30 00:43:58;;;;;;;28.50;24.70;;;;;;;3.10;65.96;97924.21;109702;1291;22212;-83
2023/03/30 00:46:29;;;;;;;30.00;26.80;;;;;;;3.06;65.62;97917.79;109781;1291;22290;-83
2023/03/30 00:49:04;;;;;;;29.30;26.20;;;;;;;3.08;65.65;97914.82;109801;1291;22918;-82
2023/03/30 00:51:54;;;;;;;29.40;26.30;;;;;;;3.09;65.77;97911.59;109612;1291;22213;-84
2023/03/30 00:54:22;;;;;;;30.20;27.00;;;;;;;3.06;65.48;97911.08;109541;1291;22218;-83
2023/03/30 00:56:51;;;;;;;29.60;26.70;;;;;;;2.99;65.97;97907.41;109520;1291;22185;-83
2023/03/30 00:59:19;;;;;;;33.90;30.60;;;;;;;2.91;65.84;97909.48;109289;1291;22664;-84
2023/03/30 01:01:48;;;;;;;32.50;29.10;;;;;;;2.86;65.82;97907.27;109543;1291;22175;-85
2023/03/30 01:04:17;;;;;;;33.50;30.50;;;;;;;2.82;66.05;97903.97;109429;1291;22190;-84
2023/03/30 01:06:46;;;;;;;26.80;24.00;;;;;;;2.81;65.87;97906.89;109532;1291;22295;-83
2023/03/30 01:09:15;;;;;;;27.80;24.60;;;;;;;2.78;66.00;97903.83;109531;1291;22243;-83
2023/03/30 01:11:43;;;;;;;28.20;25.30;;;;;;;2.72;65.84;97901.20;109420;1291;22258;-84
2023/03/30 01:14:15;;;;;;;29.20;26.20;;;;;;;2.58;65.91;97900.23;109523;1291;22201;-84
2023/03/30 01:16:49;;;;;;;33.70;30.50;;;;;;;2.41;65.84;97896.66;109540;1291;22191;-84
2023/03/30 01:19:39;;;;;;;30.70;27.70;;;;;;;2.30;65.85;97894.44;109552;1291;22214;-84
2023/03/30 01:22:42;;;;;;;29.90;26.80;;;;;;;2.24;66.06;97896.70;109530;1291;22264;-85
2023/03/30 01:25:29;;;;;;;27.70;24.90;;;;;;;2.27;66.19;97896.27;109427;1291;22750;-84
2023/03/30 01:28:20;;;;;;;29.30;26.50;;;;;;;2.25;66.36;97895.17;109546;1291;22254;-84
2023/03/30 01:31:10;;;;;;;27.90;25.20;;;;;;;2.19;66.57;97893.86;109434;1291;22223;-85
2023/03/30 01:34:05;;;;;;;35.60;31.90;;;;;;;2.07;66.58;97888.80;109432;1291;22140;-85
2023/03/30 01:36:56;;;;;;;29.70;26.70;;;;;;;2.01;66.47;97886.96;109534;1291;22293;-85
2023/03/30 01:39:38;;;;;;;31.80;28.60;;;;;;;1.91;66.20;97882.77;109548;1291;22238;-85
2023/03/30 01:42:18;;;;;;;28.80;25.90;;;;;;;1.82;66.43;97882.05;109553;1291;22295;-84
2023/03/30 01:45:10;;;;;;;26.80;23.90;;;;;;;1.68;66.81;97875.56;109426;1291;22852;-86
2023/03/30 01:47:53;;;;;;;28.20;25.20;;;;;;;1.50;66.86;97875.74;109532;1291;22252;-85
2023/03/30 01:50:33;;;;;;;33.60;30.00;;;;;;;1.38;67.46;97871.40;109543;1291;23063;-85
2023/03/30 01:53:25;;;;;;;23.30;20.70;;;;;;;1.31;67.81;97869.64;109540;1291;22219;-85
2023/03/30 01:56:18;;;;;;;21.90;19.00;;;;;;;1.27;68.39;97867.40;109526;1291;22196;-85
2023/03/30 01:59:00;;;;;;;23.00;20.50;;;;;;;1.25;68.86;97863.75;109537;1291;22917;-86
2023/03/30 02:01:32;;;;;;;22.00;19.40;;;;;;;1.24;68.81;97864.69;109530;1291;22306;-85
2023/03/30 02:04:03;;;;;;;26.00;23.20;;;;;;;1.24;68.89;97862.61;109523;1291;22186;-85
2023/03/30 02:06:40;;;;;;;25.10;22.70;;;;;;;1.20;68.80;97854.91;109548;1291;22144;-85
2023/03/30 02:09:14;;;;;;;24.50;21.90;;;;;;;1.25;68.89;97856.84;109553;1291;22645;-84
2023/03/30 02:11:47;;;;;;;30.40;27.40;;;;;;;1.33;68.83;97850.83;109441;1291;23058;-86
2023/03/30 02:14:18;;;;;;;26.60;23.00;;;;;;;1.38;68.73;97851.39;109428;1291;22923;-85
2023/03/30 02:16:48;;;;;;;23.50;21.10;;;;;;;1.44;68.86;97853.19;109409;1291;22205;-85
2023/03/30 02:19:18;;;;;;;24.50;21.80;;;;;;;1.45;69.04;97847.89;109413;1291;22323;-85
2023/03/30 02:21:46;;;;;;;26.60;22.60;;;;;;;1.44;69.56;97852.77;109524;1291;22210;-85
2023/03/30 02:24:19;;;;;;;31.30;27.10;;;;;;;1.43;70.53;97848.22;109431;1291;22135;-85
2023/03/30 02:26:50;;;;;;;25.20;22.70;;;;;;;1.41;69.87;97851.16;109545;1291;22226;-85
2023/03/30 02:29:21;;;;;;;24.50;21.90;;;;;;;1.42;69.58;97848.33;109523;1291;22205;-85
2023/03/30 02:31:53;;;;;;;27.40;24.60;;;;;;;1.39;69.60;97854.27;109433;1291;22212;-84
2023/03/30 02:34:33;;;;;;;32.10;28.90;;;;;;;1.40;69.50;97849.35;109551;1291;22280;-85
2023/03/30 02:37:23;;;;;;;30.60;27.50;;;;;;;1.43;69.70;97847.48;109541;1291;22364;-86
2023/03/30 02:40:12;;;;;;;29.10;26.10;;;;;;;1.45;69.62;97843.59;109538;1291;22134;-85
2023/03/30 02:42:58;;;;;;;29.80;26.70;;;;;;;1.50;69.51;97848.13;109425;1291;22147;-85
2023/03/30 02:45:41;;;;;;;30.60;24.40;;;;;;;1.45;69.88;97851.20;109562;1291;22231;-85
2023/03/30 02:48:22;;;;;;;29.70;26.60;;;;;;;1.39;69.62;97851.19;109421;1291;22328;-85
2023/03/30 02:50:57;;;;;;;25.10;22.50;;;;;;;1.43;69.78;97847.77;109410;1291;22278;-86
2023/03/30 02:53:46;;;;;;;25.20;22.60;;;;;;;1.44;70.72;97849.67;109538;1291;22199;-85
2023/03/30 02:56:47;;;;;;;27.40;24.60;;;;;;;1.39;70.45;97846.20;109552;1291;22132;-86
2023/03/30 02:59:21;;;;;;;28.50;25.60;;;;;;;1.39;70.38;97843.55;109496;1291;22759;-86
2023/03/30 03:01:57;;;;;;;29.40;26.30;;;;;;;1.42;70.54;97837.48;109438;1291;22717;-84
2023/03/30 03:04:28;;;;;;;30.60;26.30;;;;;;;1.48;70.60;97833.87;109400;1291;22244;-85
2023/03/30 03:07:13;;;;;;;25.70;22.70;;;;;;;1.57;70.57;97836.25;109313;1291;22179;-86
2023/03/30 03:09:41;;;;;;;26.40;23.80;;;;;;;1.64;70.48;97831.04;109405;1291;22129;-85
2023/03/30 03:12:10;;;;;;;27.40;24.50;;;;;;;1.68;70.39;97827.43;109420;1291;22933;-86
2023/03/30 03:14:38;;;;;;;24.20;21.80;;;;;;;1.71;70.43;97827.92;109545;1291;22878;-83
2023/03/30 03:17:06;;;;;;;44.60;39.90;;;;;;;1.70;70.64;97826.77;109542;1291;23235;-85
2023/03/30 03:19:38;;;;;;;23.80;21.40;;;;;;;1.69;70.49;97823.52;109532;1291;22180;-86
2023/03/30 03:22:06;;;;;;;26.70;24.10;;;;;;;1.67;71.89;97819.14;109549;1291;22205;-87
2023/03/30 03:24:37;;;;;;;48.00;42.80;;;;;;;1.66;71.73;97817.45;109405;1291;22211;-87
2023/03/30 03:27:08;;;;;;;32.80;29.80;;;;;;;1.68;71.57;97810.59;109531;1291;22172;-84
2023/03/30 03:29:52;;;;;;;25.30;22.90;;;;;;;1.76;71.57;97805.92;109406;1291;22235;-84
2023/03/30 03:32:20;;;;;;;28.50;24.00;;;;;;;1.85;71.39;97802.76;109435;1291;22189;-87
2023/03/30 03:34:48;;;;;;;29.40;24.80;;;;;;;1.93;71.47;97801.59;109425;1291;22215;-87
2023/03/30 03:37:17;;;;;;;29.80;26.60;;;;;;;2.01;71.36;97804.52;109389;1291;22270;-87
2023/03/30 03:39:45;;;;;;;28.90;25.80;;;;;;;2.05;71.30;97800.23;109391;1291;22949;-86
2023/03/30 03:42:13;;;;;;;29.70;25.40;;;;;;;2.03;72.01;97801.90;109421;1291;22225;-86
2023/03/30 03:45:06;;;;;;;32.20;26.00;;;;;;;2.04;71.94;97795.53;109397;1291;22237;-85
2023/03/30 03:47:35;;;;;;;36.90;29.60;;;;;;;2.12;71.89;97790.63;109407;1291;22234;-87
2023/03/30 03:50:08;;;;;;;36.90;31.30;;;;;;;2.20;71.83;97786.05;109521;1291;22269;-88
2023/03/30 03:52:36;;;;;;;34.20;26.50;;;;;;;2.31;71.82;97782.46;109395;1291;22970;-86
2023/03/30 03:55:04;;;;;;;32.70;26.50;;;;;;;2.40;71.87;97772.15;109407;1291;22266;-86
2023/03/30 03:57:32;;;;;;;41.70;35.60;;;;;;;2.47;71.84;97772.70;109335;1291;22878;-87
2023/03/30 04:00:03;;;;;;;28.90;25.30;;;;;;;2.54;71.70;97762.44;109426;1291;22226;-85
2023/03/30 04:02:38;;;;;;;25.90;22.70;;;;;;;2.57;71.63;97760.05;109632;1291;22217;-83
2023/03/30 04:05:07;;;;;;;28.20;23.10;;;;;;;2.65;71.65;97764.27;109689;1291;22184;-82
2023/03/30 04:07:37;;;;;;;28.30;24.80;;;;;;;2.70;71.61;97759.17;109565;1291;22292;-82
2023/03/30 04:10:07;;;;;;;35.40;28.40;;;;;;;2.72;71.18;97754.39;109608;1291;22287;-81
2023/03/30 04:12:42;;;;;;;37.90;33.90;;;;;;;2.69;71.01;97747.65;109621;1291;22282;-85
2023/03/30 04:15:38;;;;;;;41.60;37.20;;;;;;;2.64;71.10;97746.70;108714;1291;22628;-88
2023/03/30 04:18:32;;;;;;;39.30;33.50;;;;;;;2.61;71.05;97742.63;109597;1291;22283;-86
2023/03/30 04:21:30;;;;;;;30.90;27.70;;;;;;;2.63;71.25;97750.20;108981;1291;22156;-87
2023/03/30 04:23:58;;;;;;;25.50;21.80;;;;;;;2.69;71.40;97750.81;109633;1291;22381;-81
2023/03/30 04:26:47;;;;;;;25.50;22.70;;;;;;;2.77;71.27;97749.01;109545;1291;22280;-82
2023/03/30 04:29:31;;;;;;;24.50;21.80;;;;;;;2.84;71.69;97752.12;109415;1291;22328;-83
2023/03/30 04:32:38;;;;;;;23.00;20.60;;;;;;;2.90;71.66;97750.20;108777;1291;22243;-82
2023/03/30 04:35:15;;;;;;;24.90;22.20;;;;;;;2.95;71.62;97746.58;109440;1291;22209;-85
2023/03/30 04:38:01;;;;;;;22.70;19.70;;;;;;;3.00;71.53;97744.17;109646;1291;22171;-86
2023/03/30 04:40:59;;;;;;;24.70;20.00;;;;;;;3.03;71.30;97741.37;108975;1291;22303;-88
2023/03/30 04:43:43;;;;;;;21.40;18.40;;;;;;;3.05;71.37;97739.04;109480;1291;22229;-91
2023/03/30 04:46:35;;;;;;;44.40;39.70;;;;;;;3.10;71.39;97734.88;109569;1291;22256;-84
2023/03/30 04:49:24;;;;;;;29.10;25.20;;;;;;;3.15;71.47;97735.13;109521;1291;22147;-84
2023/03/30 04:52:21;;;;;;;20.70;17.30;;;;;;;3.21;71.72;97734.38;109513;1291;23109;-84
2023/03/30 04:55:15;;;;;;;19.20;17.20;;;;;;;3.31;71.51;97735.52;109430;1291;22840;-83
2023/03/30 04:57:57;;;;;;;22.10;18.20;;;;;;;3.44;71.45;97732.66;109522;1291;22172;-84
2023/03/30 05:00:44;;;;;;;17.60;15.50;;;;;;;3.56;71.72;97730.30;109529;1291;23002;-84
2023/03/30 05:03:38;;;;;;;18.10;15.30;;;;;;;3.67;71.55;97727.05;109218;1291;22264;-85
2023/03/30 05:06:28;;;;;;;17.70;15.90;;;;;;;3.74;71.62;97720.86;109398;1289;22297;-84
2023/03/30 05:09:28;;;;;;;20.20;17.80;;;;;;;3.79;71.57;97716.04;109305;1291;22626;-82
2023/03/30 05:12:07;;;;;;;21.70;17.10;;;;;;;3.83;71.72;97714.36;109423;1291;22172;-83
2023/03/30 05:14:41;;;;;;;25.10;20.40;;;;;;;3.87;71.26;97715.44;109387;1291;22785;-83
2023/03/30 05:17:32;;;;;;;21.90;19.70;;;;;;;3.90;71.59;97717.20;109539;1291;22803;-84
2023/03/30 05:20:15;;;;;;;23.10;20.50;;;;;;;3.94;71.70;97713.80;109544;1291;22878;-84
2023/03/30 05:23:01;;;;;;;19.90;17.90;;;;;;;3.99;71.47;97709.09;109407;1291;22265;-84
2023/03/30 05:25:50;;;;;;;18.90;16.80;;;;;;;4.04;71.57;97706.98;108906;1291;22321;-83
2023/03/30 05:28:54;;;;;;;20.10;16.50;;;;;;;4.12;71.45;97706.15;108761;1291;23098;-84
2023/03/30 05:31:35;;;;;;;18.90;15.60;;;;;;;4.19;71.58;97703.23;109415;1291;22744;-84
2023/03/30 05:34:14;;;;;;;21.20;18.80;;;;;;;4.27;71.54;97704.13;109393;1291;22882;-88
2023/03/30 05:37:09;;;;;;;23.30;19.00;;;;;;;4.38;71.32;97706.71;109247;1291;22191;-86
2023/03/30 05:39:41;;;;;;;25.60;18.20;;;;;;;4.47;71.49;97705.34;109323;1291;22225;-87
2023/03/30 05:42:23;;;;;;;21.90;17.80;;;;;;;4.58;71.73;97703.13;109411;1291;22222;-90
2023/03/30 05:45:17;;;;;;;19.30;17.30;;;;;;;4.69;71.64;97700.96;109480;1291;22069;-92
2023/03/30 05:48:08;;;;;;;23.40;18.80;;;;;;;4.79;71.69;97701.66;109436;1291;22961;-91
2023/03/30 05:50:47;;;;;;;22.70;18.80;;;;;;;4.87;71.65;97702.31;109438;1291;22246;-88
2023/03/30 05:53:35;;;;;;;24.30;21.10;;;;;;;4.93;71.60;97698.69;109339;1291;22302;-89
2023/03/30 05:56:23;;;;;;;30.30;23.10;;;;;;;4.97;71.51;97699.85;109584;1291;22203;-88
2023/03/30 05:59:11;;;;;;;27.50;24.70;;;;;;;5.04;71.38;97694.14;109379;1291;22191;-89
2023/03/30 06:01:46;;;;;;;30.10;27.20;;;;;;;5.09;71.37;97690.72;109402;1291;22255;-86
2023/03/30 06:04:15;;;;;;;33.10;24.50;;;;;;;5.13;71.17;97686.23;109396;1291;22133;-88
2023/03/30 06:06:43;;;;;;;27.30;24.70;;;;;;;5.19;71.07;97683.71;109399;1291;22195;-88
2023/03/30 06:09:11;;;;;;;29.80;27.00;;;;;;;5.25;71.05;97677.35;109416;1291;22227;-88
2023/03/30 06:11:39;;;;;;;31.20;28.20;;;;;;;5.32;70.93;97677.70;109531;1291;22359;-89
2023/03/30 06:14:18;;;;;;;30.30;27.30;;;;;;;5.39;70.87;97674.77;109445;1291;22250;-89
2023/03/30 06:17:03;;;;;;;25.30;22.90;;;;;;;5.49;70.89;97665.45;109414;1291;22208;-89
2023/03/30 06:19:31;;;;;;;22.40;20.10;;;;;;;5.58;70.69;97663.70;109404;1291;22218;-88
2023/03/30 06:21:59;;;;;;;20.00;17.10;;;;;;;5.68;70.85;97665.92;109423;1291;22231;-88
2023/03/30 06:24:46;;;;;;;17.30;15.60;;;;;;;5.79;70.69;97665.46;109431;1291;22297;-87
2023/03/30 06:27:14;;;;;;;18.80;17.00;;;;;;;5.88;70.61;97669.81;109397;1291;22942;-89
2023/03/30 06:29:42;;;;;;;20.30;18.00;;;;;;;5.98;70.46;97672.52;109404;1291;22230;-87
2023/03/30 06:32:10;;;;;;;19.70;17.60;;;;;;;6.02;70.32;97663.36;109394;1291;22236;-89
2023/03/30 06:35:05;;;;;;;23.10;19.40;;;;;;;6.14;70.18;97665.83;109298;1291;22391;-88
2023/03/30 06:37:35;;;;;;;23.70;20.90;;;;;;;6.21;69.87;97663.70;109302;1291;22338;-88
2023/03/30 06:40:12;;;;;;;24.70;22.30;;;;;;;6.25;70.05;97653.08;109419;1291;22909;-88
2023/03/30 06:42:45;;;;;;;24.90;20.40;;;;;;;6.39;69.74;97656.58;109424;1291;22121;-88
2023/03/30 06:45:37;;;;;;;22.90;19.30;;;;;;;6.50;69.88;97654.91;109259;1291;23052;-88
2023/03/30 06:48:05;;;;;;;21.40;19.20;;;;;;;6.58;69.90;97651.42;109407;1277;22109;-88
2023/03/30 06:50:35;;;;;;;20.30;18.20;;;;;;;6.68;69.57;97651.57;109417;1291;22148;-86
2023/03/30 06:53:24;;;;;;;23.30;19.70;;;;;;;6.80;69.66;97655.81;109538;1291;22216;-87
2023/03/30 06:55:57;;;;;;;22.20;19.60;;;;;;;6.91;69.41;97654.07;109427;1291;22228;-90
2023/03/30 06:58:27;;;;;;;22.80;19.40;;;;;;;7.00;69.30;97653.52;109406;1291;22169;-89
2023/03/30 07:00:55;;;;;;;22.00;19.70;;;;;;;7.10;68.72;97648.39;109400;1291;22287;-91
2023/03/30 07:03:42;;;;;;;18.50;16.50;;;;;;;7.22;68.79;97649.13;109581;1291;22222;-91
2023/03/30 07:06:24;;;;;;;18.00;14.80;;;;;;;7.35;68.54;97649.02;109295;1291;22120;-91
2023/03/30 07:08:52;;;;;;;16.10;12.50;;;;;;;7.45;68.35;97650.73;109488;1291;22219;-89
2023/03/30 07:11:25;;;;;;;14.20;12.70;;;;;;;7.53;68.11;97653.12;109470;1291;22215;-89
2023/03/30 07:13:57;;;;;;;18.80;13.50;;;;;;;7.60;68.17;97649.06;109521;1291;22277;-91
2023/03/30 07:16:25;;;;;;;15.70;12.60;;;;;;;7.70;68.00;97645.52;109635;1291;21930;-91
2023/03/30 07:18:53;;;;;;;15.70;14.00;;;;;;;7.75;67.43;97635.65;109521;1291;22226;-86
2023/03/30 07:21:21;;;;;;;17.80;14.80;;;;;;;7.80;66.70;97631.58;109812;1291;22213;-86
2023/03/30 07:23:49;;;;;;;14.50;11.60;;;;;;;7.91;67.20;97636.24;109709;1291;22172;-83
2023/03/30 07:26:27;;;;;;;13.60;12.20;;;;;;;8.39;68.25;97637.04;109740;1289;22248;-84
2023/03/30 07:29:04;;;;;;;15.00;13.00;;;;;;;8.86;68.07;97637.13;109716;1291;22225;-82
2023/03/30 07:31:32;;;;;;;20.60;14.40;;;;;;;9.16;68.11;97637.61;109710;1291;22662;-83
2023/03/30 07:34:03;;;;;;;15.50;13.00;;;;;;;9.49;67.51;97629.63;109587;1291;22252;-84
2023/03/30 07:36:37;;;;;;;17.70;13.20;;;;;;;9.84;67.46;97639.08;109466;1291;22798;-85
2023/03/30 07:39:07;;;;;;;19.20;13.70;;;;;;;10.15;67.20;97633.55;109312;1291;23033;-82
2023/03/30 07:41:36;;;;;;;15.50;13.60;;;;;;;10.47;66.64;97628.98;109466;1291;22110;-83
2023/03/30 07:44:04;;;;;;;15.10;13.50;;;;;;;10.62;66.33;97629.39;109552;1291;22150;-83
2023/03/30 07:46:33;;;;;;;14.10;12.20;;;;;;;10.68;66.05;97618.30;109441;1291;22885;-83
2023/03/30 07:49:02;;;;;;;19.30;11.90;;;;;;;10.75;65.39;97607.58;109197;1291;22301;-83
2023/03/30 07:51:32;;;;;;;16.20;11.30;;;;;;;10.78;65.24;97603.00;109300;1291;22214;-83
2023/03/30 07:54:12;;;;;;;14.90;9.90;;;;;;;10.88;64.58;97609.80;109404;1291;22258;-82
2023/03/30 07:56:58;;;;;;;12.10;9.20;;;;;;;10.79;63.95;97610.61;109419;1291;22147;-83
2023/03/30 07:59:26;;;;;;;12.70;9.10;;;;;;;10.73;61.89;97611.30;109415;1291;22245;-82
2023/03/30 08:01:58;;;;;;;13.30;8.60;;;;;;;10.50;60.52;97617.45;109290;1291;22190;-83
2023/03/30 08:04:47;;;;;;;11.10;7.90;;;;;;;10.36;60.98;97612.86;109316;1291;23055;-83
2023/03/30 08:07:19;;;;;;;13.50;9.90;;;;;;;10.26;60.89;97614.95;109307;1291;23345;-82
2023/03/30 08:09:47;;;;;;;35.80;32.10;;;;;;;10.23;61.31;97605.20;109409;1291;22317;-83
2023/03/30 08:12:15;;;;;;;13.00;9.50;;;;;;;10.28;61.11;97595.17;109419;1291;22890;-84
2023/03/30 08:14:45;;;;;;;9.60;7.40;;;;;;;10.30;59.87;97600.93;109412;1291;22260;-83
2023/03/30 08:17:13;;;;;;;12.40;8.10;;;;;;;10.27;59.14;97605.19;109421;1291;22235;-82
2023/03/30 08:19:41;;;;;;;9.40;8.10;;;;;;;10.22;57.56;97609.25;109537;1291;22225;-82
2023/03/30 08:22:09;;;;;;;10.10;7.20;;;;;;;10.19;57.75;97610.45;109516;1291;22191;-83
2023/03/30 08:24:37;;;;;;;15.60;7.10;;;;;;;10.24;57.46;97609.18;109520;1291;22286;-83
2023/03/30 08:27:05;;;;;;;9.50;6.70;;;;;;;10.27;57.31;97600.83;109536;1291;22186;-83
2023/03/30 08:29:33;;;;;;;11.40;7.70;;;;;;;10.31;56.27;97606.58;109300;1291;22221;-82
2023/03/30 08:32:01;;;;;;;10.20;7.00;;;;;;;10.31;54.88;97609.52;109521;1291;22253;-81
2023/03/30 08:34:30;;;;;;;10.60;8.50;;;;;;;10.27;55.15;97610.30;109620;1291;22295;-80
2023/03/30 08:36:58;;;;;;;10.80;8.70;;;;;;;10.30;54.87;97612.40;109676;1291;22214;-79
2023/03/30 08:39:29;;;;;;;11.40;7.50;;;;;;;10.36;54.84;97606.65;109669;1291;22240;-81
2023/03/30 08:42:28;;;;;;;10.60;6.90;;;;;;;10.45;54.38;97604.13;109673;1291;22232;-80
2023/03/30 08:45:02;;;;;;;11.30;7.40;;;;;;;10.54;54.32;97603.62;109615;1291;22358;-81
2023/03/30 08:47:38;;;;;;;8.50;6.60;;;;;;;10.61;54.76;97602.70;109566;1291;22203;-80
2023/03/30 08:50:08;;;;;;;10.50;7.60;;;;;;;10.77;54.83;97601.07;109578;1291;22473;-81
2023/03/30 08:52:36;;;;;;;12.30;9.30;;;;;;;10.91;53.58;97601.13;109532;1291;22231;-81
2023/03/30 08:55:05;;;;;;;19.30;8.50;;;;;;;10.95;53.36;97597.18;109562;1291;22397;-82
2023/03/30 08:57:58;;;;;;;10.70;9.00;;;;;;;11.01;52.77;97600.20;109546;1291;22231;-82
2023/03/30 09:00:42;;;;;;;12.10;9.40;;;;;;;11.04;52.80;97599.86;109502;1291;22301;-83
2023/03/30 09:03:14;;;;;;;;;;;;;;;11.07;52.20;97592.02;109538;1291;22408;-83
2023/03/30 09:05:53;;;;;;;13.60;9.60;;;;;;;11.05;52.34;97590.14;109517;1291;22279;-83
2023/03/30 09:08:27;;;;;;;11.80;8.90;;;;;;;11.06;52.56;97589.23;109512;1291;23161;-83
2023/03/30 09:10:59;;;;;;;14.00;10.00;;;;;;;11.04;52.07;97589.17;109531;1291;22216;-82
2023/03/30 09:13:32;;;;;;;15.20;11.60;;;;;;;10.99;52.51;97579.02;109522;1291;22220;-83
2023/03/30 09:16:04;;;;;;;16.40;10.10;;;;;;;11.02;52.75;97572.34;109301;1291;22218;-82
2023/03/30 09:18:36;;;;;;;15.50;10.70;;;;;;;11.11;52.85;97560.70;109520;1291;22180;-82
2023/03/30 09:21:07;;;;;;;12.40;9.10;;;;;;;11.24;52.49;97557.77;109520;1291;22946;-84
2023/03/30 09:23:38;;;;;;;10.90;9.10;;;;;;;11.28;52.67;97549.35;109413;1291;23016;-83
2023/03/30 09:26:12;;;;;;;12.70;8.60;;;;;;;11.36;52.80;97542.96;109449;1291;22208;-85
2023/03/30 09:28:58;;;;;;;15.40;8.80;;;;;;;11.47;52.59;97545.64;109519;1291;22204;-81
2023/03/30 09:31:42;;;;;;;17.50;9.60;;;;;;;11.55;52.06;97536.56;109510;1291;23056;-81
2023/03/30 09:34:24;;;;;;;13.60;9.00;;;;;;;11.63;52.24;97540.05;109515;1291;22297;-81
2023/03/30 09:37:03;;;;;;;11.90;7.00;;;;;;;11.75;52.56;97535.14;109505;1291;22237;-82
2023/03/30 09:39:34;;;;;;;10.50;8.10;;;;;;;11.90;52.89;97530.34;109409;1291;22248;-82
2023/03/30 09:42:34;;;;;;;11.40;8.40;;;;;;;12.08;52.24;97529.30;109263;1291;22186;-81
2023/03/30 09:45:40;;;;;;;10.40;7.30;;;;;;;12.24;52.78;97523.45;109502;1291;22258;-82
2023/03/30 09:48:09;;;;;;;14.00;8.00;;;;;;;12.43;52.40;97519.15;108798;1297;22147;-81
2023/03/30 09:50:43;;;;;;;12.60;9.50;;;;;;;12.53;52.52;97514.74;108811;1297;23083;-81
2023/03/30 09:53:23;;;;;;;12.40;9.70;;;;;;;12.71;51.50;97507.79;108811;1297;22231;-81
2023/03/30 09:56:00;;;;;;;14.90;9.30;;;;;;;12.93;52.26;97502.20;108812;1297;22291;-81
2023/03/30 09:58:31;;;;;;;12.10;8.50;;;;;;;13.29;52.77;97499.63;108799;1297;22353;-82
2023/03/30 10:01:11;;;;;;;12.70;8.80;;;;;;;13.65;52.20;97492.95;108835;1297;22243;-82
2023/03/30 10:03:44;;;;;;;29.50;10.10;;;;;;;13.89;51.36;97484.63;108802;1297;22268;-82
2023/03/30 10:06:17;;;;;;;12.40;8.70;;;;;;;14.04;50.79;97479.41;108804;1297;22245;-82
2023/03/30 10:08:51;;;;;;;17.20;9.20;;;;;;;14.20;50.47;97478.27;108630;1297;22961;-83
2023/03/30 10:11:29;;;;;;;12.30;8.20;;;;;;;14.26;50.69;97463.30;108664;1292;22123;-81
2023/03/30 10:13:58;;;;;;;13.40;8.30;;;;;;;14.40;50.12;97463.09;108820;1297;22318;-88
2023/03/30 10:16:31;;;;;;;10.50;7.70;;;;;;;14.49;49.73;97462.96;108823;1297;22244;-86
2023/03/30 10:19:02;;;;;;;16.80;8.90;;;;;;;14.53;49.81;97463.30;108834;1297;22268;-86
2023/03/30 10:21:36;;;;;;;12.90;7.60;;;;;;;14.68;50.64;97453.16;108698;1297;22276;-88
2023/03/30 10:24:13;;;;;;;;;;;;;;;14.89;49.11;97446.64;109142;1291;22468;-88
2023/03/30 10:26:45;;;;;;;11.50;8.20;;;;;;;14.86;48.64;97449.73;109543;1291;22255;-85
2023/03/30 10:29:17;;;;;;;10.20;6.60;;;;;;;14.84;47.98;97440.73;109554;1291;23092;-85
2023/03/30 10:31:48;;;;;;;13.10;6.40;;;;;;;14.89;48.69;97449.74;109310;1291;22265;-86
2023/03/30 10:34:43;;;;;;;19.50;13.70;;;;;;;15.02;47.29;97446.83;109297;1291;22213;-85
2023/03/30 10:37:21;;;;;;;16.40;11.40;;;;;;;15.04;46.76;97449.20;109269;1291;22247;-86
2023/03/30 10:39:51;;;;;;;10.90;6.80;;;;;;;15.16;47.09;97438.34;109509;1291;22411;-86
2023/03/30 10:42:24;;;;;;;11.80;6.10;;;;;;;15.36;47.65;97423.92;109532;1283;22120;-84
2023/03/30 10:44:59;;;;;;;13.00;9.70;;;;;;;15.63;46.66;97432.42;109498;1291;22195;-84
2023/03/30 10:47:55;;;;;;;9.40;5.40;;;;;;;15.49;45.55;97424.88;109285;1291;22169;-85
2023/03/30 10:50:34;;;;;;;11.30;5.20;;;;;;;15.17;45.33;97416.98;109504;1291;22232;-84
2023/03/30 10:53:02;;;;;;;8.90;7.20;;;;;;;14.93;46.38;97410.52;109517;1288;22317;-85
2023/03/30 10:56:05;;;;;;;9.50;5.40;;;;;;;14.87;46.26;97404.72;109501;1291;22454;-85
2023/03/30 10:58:53;;;;;;;12.70;5.80;;;;;;;14.76;46.27;97401.51;109255;1291;22289;-85
2023/03/30 11:01:40;;;;;;;10.40;4.60;;;;;;;14.64;45.89;97403.20;109519;1291;22223;-83
2023/03/30 11:04:17;;;;;;;11.80;4.90;;;;;;;14.43;46.04;97408.05;109490;1288;22283;-82
2023/03/30 11:06:55;;;;;;;7.70;5.30;;;;;;;14.30;46.36;97405.98;109509;1291;22907;-82
2023/03/30 11:09:31;;;;;;;9.00;5.30;;;;;;;14.21;46.24;97406.39;109468;1291;22216;-88
2023/03/30 11:12:06;;;;;;;9.90;5.20;;;;;;;14.07;46.30;97401.10;109596;1291;22290;-90
2023/03/30 11:14:50;;;;;;;11.20;5.90;;;;;;;14.01;46.60;97396.54;109557;1291;22214;-91
2023/03/30 11:17:30;;;;;;;9.50;6.10;;;;;;;14.04;46.56;97390.94;109554;1291;22188;-91
2023/03/30 11:20:09;;;;;;;11.20;6.40;;;;;;;14.04;46.83;97382.17;109557;1291;22415;-92
2023/03/30 11:22:49;;;;;;;8.60;6.00;;;;;;;14.14;46.70;97384.65;109536;1291;22188;-92
2023/03/30 11:25:33;;;;;;;7.90;5.50;;;;;;;14.19;46.62;97384.48;109546;1291;22239;-91
2023/03/30 11:28:11;;;;;;;11.20;6.90;;;;;;;14.33;46.70;97381.17;109420;1291;22154;-91
2023/03/30 11:30:42;;;;;;;11.00;7.00;;;;;;;14.56;46.36;97380.46;109552;1280;22243;-90
2023/03/30 11:33:16;;;;;;;24.00;6.60;;;;;;;14.73;46.31;97376.77;109402;1291;22973;-89
2023/03/30 11:35:47;;;;;;;12.70;5.90;;;;;;;14.97;46.52;97377.67;109585;1291;22313;-92
2023/03/30 11:38:41;;;;;;;10.60;5.80;;;;;;;15.17;45.90;97377.84;109543;1291;22235;-93
2023/03/30 11:41:13;;;;;;;12.50;6.20;;;;;;;15.28;45.51;97379.96;109612;1291;22217;-90
2023/03/30 11:43:42;;;;;;;9.20;4.70;;;;;;;15.40;45.74;97378.84;109601;1291;22282;-92
2023/03/30 11:46:26;;;;;;;8.10;5.10;;;;;;;15.41;45.38;97386.33;109584;1291;22280;-93
2023/03/30 11:49:03;;;;;;;10.00;6.00;;;;;;;15.12;45.52;97377.44;109569;1291;22289;-88
2023/03/30 11:51:44;;;;;;;13.20;9.30;;;;;;;14.82;46.10;97374.06;109531;1291;22291;-86
2023/03/30 11:54:17;;;;;;;10.00;6.50;;;;;;;14.50;46.41;97369.49;109542;1291;22318;-85
2023/03/30 11:56:53;;;;;;;9.90;6.00;;;;;;;14.23;47.21;97358.44;109519;1291;22307;-85
2023/03/30 11:59:31;;;;;;;13.10;8.60;;;;;;;13.98;47.84;97357.28;109559;1291;22323;-85
2023/03/30 12:02:22;;;;;;;19.60;15.90;;;;;;;13.90;48.19;97351.26;109541;1291;22886;-86